Time,TemperatureF,DewpointF,PressureIn,WindDirection,WindDirectionDegrees,WindSpeedMPH,WindSpeedGustMPH,Humidity,HourlyPrecipIn,Conditions,Clouds,dailyrainin,SoftwareType,DateUTC
2013-08-24 00:24:00,80.0,76.0,-100.00,WSW,240,1.0,-999.0,86,0.00,,,-99.99,,2013-08-24 04:24:00,
2013-08-24 00:34:00,80.0,76.0,-100.00,WSW,240,1.0,-999.0,86,0.00,,,-99.99,,2013-08-24 04:34:00,
2013-08-24 00:44:00,80.0,76.0,-100.00,WSW,240,1.0,-999.0,86,0.00,,,-99.99,,2013-08-24 04:44:00,
2013-08-24 01:23:00,80.0,76.0,-100.00,West,261,2.0,-999.0,86,0.00,,,-99.99,,2013-08-24 05:23:00,
2013-08-24 01:33:00,80.0,76.0,-100.00,West,261,2.0,-999.0,86,0.00,,,-99.99,,2013-08-24 05:33:00,
2013-08-24 01:43:00,80.0,76.0,-100.00,West,261,2.0,-999.0,86,0.00,,,-99.99,,2013-08-24 05:43:00,
2013-08-24 02:22:00,79.0,76.0,-100.00,WSW,249,1.0,-999.0,90,0.00,,,-99.99,,2013-08-24 06:22:00,
2013-08-24 02:32:00,79.0,76.0,-100.00,WSW,249,1.0,-999.0,90,0.00,,,-99.99,,2013-08-24 06:32:00,
2013-08-24 02:42:00,79.0,76.0,-100.00,WSW,249,1.0,-999.0,90,0.00,,,-99.99,,2013-08-24 06:42:00,
2013-08-24 03:22:00,78.0,75.0,-100.00,SW,236,1.0,-999.0,93,0.00,,,-99.99,,2013-08-24 07:22:00,
2013-08-24 03:32:00,78.0,75.0,-100.00,SW,236,1.0,-999.0,93,0.00,,,-99.99,,2013-08-24 07:32:00,
2013-08-24 03:43:00,78.0,75.0,-100.00,SW,236,1.0,-999.0,93,0.00,,,-99.99,,2013-08-24 07:43:00,
2013-08-24 04:22:00,77.0,75.0,-100.00,WNW,295,1.0,-999.0,94,0.00,,,-99.99,,2013-08-24 08:22:00,
2013-08-24 04:32:00,77.0,75.0,-100.00,WNW,295,1.0,-999.0,94,0.00,,,-99.99,,2013-08-24 08:32:00,
2013-08-24 04:42:00,77.0,75.0,-100.00,WNW,295,1.0,-999.0,94,0.00,,,-99.99,,2013-08-24 08:42:00,
2013-08-24 05:22:00,76.0,75.0,-100.00,West,272,1.0,-999.0,97,0.00,,,-99.99,,2013-08-24 09:22:00,
2013-08-24 05:34:00,76.0,75.0,-100.00,West,272,1.0,-999.0,97,0.00,,,-99.99,,2013-08-24 09:34:00,
2013-08-24 05:44:00,76.0,75.0,-100.00,West,272,1.0,-999.0,97,0.00,,,-99.99,,2013-08-24 09:44:00,
2013-08-24 06:23:00,75.0,75.0,-100.00,WNW,289,1.0,-999.0,98,0.00,,,-99.99,,2013-08-24 10:23:00,
2013-08-24 06:33:00,75.0,75.0,-100.00,WNW,289,1.0,-999.0,98,0.00,,,-99.99,,2013-08-24 10:33:00,
2013-08-24 06:42:00,75.0,75.0,-100.00,WNW,289,1.0,-999.0,98,0.00,,,-99.99,,2013-08-24 10:42:00,
2013-08-24 07:22:00,75.0,75.0,-100.00,West,273,0.0,-999.0,100,0.00,,,-99.99,,2013-08-24 11:22:00,
2013-08-24 07:33:00,75.0,75.0,-100.00,West,273,0.0,-999.0,100,0.00,,,-99.99,,2013-08-24 11:33:00,
2013-08-24 07:42:00,75.0,75.0,-100.00,West,273,0.0,-999.0,100,0.00,,,-99.99,,2013-08-24 11:42:00,
2013-08-24 08:21:00,75.0,74.0,-100.00,WNW,296,1.0,-999.0,97,0.00,,,-99.99,,2013-08-24 12:21:00,
2013-08-24 08:32:00,75.0,74.0,-100.00,WNW,296,1.0,-999.0,97,0.00,,,-99.99,,2013-08-24 12:32:00,
2013-08-24 08:42:00,75.0,74.0,-100.00,WNW,296,1.0,-999.0,97,0.00,,,-99.99,,2013-08-24 12:42:00,
2013-08-24 09:22:00,77.0,75.0,-100.00,North,354,1.0,-999.0,94,0.00,,,-99.99,,2013-08-24 13:22:00,
2013-08-24 09:32:00,77.0,75.0,-100.00,North,354,1.0,-999.0,94,0.00,,,-99.99,,2013-08-24 13:32:00,
2013-08-24 09:42:00,77.0,75.0,-100.00,North,354,1.0,-999.0,94,0.00,,,-99.99,,2013-08-24 13:42:00,
2013-08-24 10:22:00,77.0,75.0,-100.00,NNE,16,3.0,-999.0,94,0.00,,,-99.99,,2013-08-24 14:22:00,
2013-08-24 10:32:00,77.0,75.0,-100.00,NNE,16,3.0,-999.0,94,0.00,,,-99.99,,2013-08-24 14:32:00,
2013-08-24 10:42:00,77.0,75.0,-100.00,NNE,16,3.0,-999.0,94,0.00,,,-99.99,,2013-08-24 14:42:00,
2013-08-24 10:45:00,79.0,73.0,-100.00,NE,37,6.0,-999.0,84,0.00,,,-99.99,,2013-08-24 14:45:00,
2013-08-24 11:22:00,79.0,73.0,-100.00,NE,37,6.0,-999.0,84,0.00,,,-99.99,,2013-08-24 15:22:00,
2013-08-24 11:34:00,79.0,73.0,-100.00,NE,37,6.0,-999.0,84,0.00,,,-99.99,,2013-08-24 15:34:00,
2013-08-24 12:23:00,78.0,73.0,-100.00,NE,43,5.0,-999.0,84,0.00,,,-99.99,,2013-08-24 16:23:00,
2013-08-24 12:33:00,78.0,73.0,-100.00,NE,43,5.0,-999.0,84,0.00,,,-99.99,,2013-08-24 16:33:00,
2013-08-24 12:42:00,78.0,73.0,-100.00,NE,43,5.0,-999.0,84,0.00,,,-99.99,,2013-08-24 16:42:00,
2013-08-24 13:23:00,78.0,72.0,-100.00,NE,34,4.0,-999.0,82,0.00,,,-99.99,,2013-08-24 17:23:00,
2013-08-24 13:34:00,78.0,72.0,-100.00,NE,34,4.0,-999.0,82,0.00,,,-99.99,,2013-08-24 17:34:00,
2013-08-24 13:42:00,78.0,72.0,-100.00,NE,34,4.0,-999.0,82,0.00,,,-99.99,,2013-08-24 17:42:00,
2013-08-24 14:22:00,79.0,72.0,-100.00,NE,47,5.0,-999.0,79,0.00,,,-99.99,,2013-08-24 18:22:00,
2013-08-24 14:32:00,79.0,72.0,-100.00,NE,47,5.0,-999.0,79,0.00,,,-99.99,,2013-08-24 18:32:00,
2013-08-24 14:42:00,79.0,72.0,-100.00,NE,47,5.0,-999.0,79,0.00,,,-99.99,,2013-08-24 18:42:00,
2013-08-24 15:22:00,80.0,72.0,-100.00,NNE,27,3.0,-999.0,78,0.00,,,-99.99,,2013-08-24 19:22:00,
2013-08-24 15:32:00,80.0,72.0,-100.00,NNE,27,3.0,-999.0,78,0.00,,,-99.99,,2013-08-24 19:32:00,
2013-08-24 15:42:00,80.0,72.0,-100.00,NNE,27,3.0,-999.0,78,0.00,,,-99.99,,2013-08-24 19:42:00,
2013-08-24 16:22:00,82.0,72.0,-100.00,NE,49,3.0,-999.0,73,0.00,,,-99.99,,2013-08-24 20:22:00,
2013-08-24 16:32:00,82.0,72.0,-100.00,NE,49,3.0,-999.0,73,0.00,,,-99.99,,2013-08-24 20:32:00,
2013-08-24 16:42:00,82.0,72.0,-100.00,NE,49,3.0,-999.0,73,0.00,,,-99.99,,2013-08-24 20:42:00,
2013-08-24 17:22:00,82.0,71.0,-100.00,East,95,1.0,-999.0,70,0.00,,,-99.99,,2013-08-24 21:22:00,
2013-08-24 17:34:00,82.0,71.0,-100.00,East,95,1.0,-999.0,70,0.00,,,-99.99,,2013-08-24 21:34:00,
2013-08-24 17:43:00,82.0,71.0,-100.00,East,95,1.0,-999.0,70,0.00,,,-99.99,,2013-08-24 21:43:00,
2013-08-24 18:24:00,84.0,74.0,-100.00,NW,324,1.0,-999.0,70,0.00,,,-99.99,,2013-08-24 22:24:00,
2013-08-24 18:33:00,84.0,74.0,-100.00,NW,324,1.0,-999.0,70,0.00,,,-99.99,,2013-08-24 22:33:00,
2013-08-24 18:43:00,84.0,74.0,-100.00,NW,324,1.0,-999.0,70,0.00,,,-99.99,,2013-08-24 22:43:00,
2013-08-24 19:22:00,75.0,75.0,-100.00,NNW,348,1.0,-999.0,100,0.19,,,-99.99,,2013-08-24 23:22:00,
2013-08-24 19:34:00,75.0,75.0,-100.00,NNW,348,1.0,-999.0,100,0.19,,,-99.99,,2013-08-24 23:34:00,
2013-08-24 19:43:00,75.0,75.0,-100.00,NNW,348,1.0,-999.0,100,0.19,,,-99.99,,2013-08-24 23:43:00,
2013-08-24 20:22:00,75.0,75.0,-100.00,NNE,33,1.0,-999.0,100,0.00,,,-99.99,,2013-08-25 00:22:00,
2013-08-24 20:32:00,75.0,75.0,-100.00,NNE,33,1.0,-999.0,100,0.00,,,-99.99,,2013-08-25 00:32:00,
2013-08-24 20:42:00,75.0,75.0,-100.00,NNE,33,1.0,-999.0,100,0.00,,,-99.99,,2013-08-25 00:42:00,
2013-08-24 21:22:00,74.0,74.0,-100.00,NNE,28,1.0,-999.0,100,0.00,,,-99.99,,2013-08-25 01:22:00,
2013-08-24 21:32:00,74.0,74.0,-100.00,NNE,28,1.0,-999.0,100,0.00,,,-99.99,,2013-08-25 01:32:00,
2013-08-24 21:42:00,74.0,74.0,-100.00,NNE,28,1.0,-999.0,100,0.00,,,-99.99,,2013-08-25 01:42:00,
2013-08-24 22:22:00,74.0,74.0,-100.00,NNE,20,1.0,-999.0,99,0.00,,,-99.99,,2013-08-25 02:22:00,
2013-08-24 22:33:00,74.0,74.0,-100.00,NNE,20,1.0,-999.0,99,0.00,,,-99.99,,2013-08-25 02:33:00,
2013-08-24 22:42:00,74.0,74.0,-100.00,NNE,20,1.0,-999.0,99,0.00,,,-99.99,,2013-08-25 02:42:00,
2013-08-24 23:23:00,73.0,73.0,-100.00,North,9,0.0,-999.0,100,0.00,,,-99.99,,2013-08-25 03:23:00,
2013-08-24 23:34:00,73.0,73.0,-100.00,North,9,0.0,-999.0,100,0.00,,,-99.99,,2013-08-25 03:34:00,
2013-08-24 23:44:00,73.0,73.0,-100.00,North,9,0.0,-999.0,100,0.00,,,-99.99,,2013-08-25 03:44:00,